Terminal Aerodrome Forecast
Issued by NWS

Home | Current Version | Previous Version | Text Only | Print | Product List | Glossary On
Versions: 1 2 3 4 5 6 7 8 9 10 11 12 13
000
FTUS45 KRIW 201133
TAFJAC
TAF
KJAC 201133Z 2012/2112 20009KT P6SM BKN040 WS020/25035KT
     FM201700 20018G26KT P6SM VCSH SCT020 BKN035
     FM202300 20016G23KT P6SM -RA SCT020 BKN035
     FM210600 20014G21KT 5SM -RA SCT012 OVC025
      AMD LTD TO CLD VIS AND WIND=

USA.gov is the U.S. government's official web portal to all federal, state and local government web resources and services.